createdAt,value
2023-03-05T00:00:54.093Z,29.80
2023-03-05T00:03:40.847Z,24.57
2023-03-05T00:06:27.384Z,25.53
2023-03-05T00:09:13.944Z,29.67
2023-03-05T00:12:00.461Z,25.90
2023-03-05T00:14:47.009Z,25.30
2023-03-05T00:17:33.553Z,28.23
2023-03-05T00:20:20.122Z,24.20
2023-03-05T00:23:06.727Z,28.23
2023-03-05T00:25:53.331Z,27.30
2023-03-05T00:28:39.900Z,26.60
2023-03-05T00:31:26.503Z,26.10
2023-03-05T00:34:13.110Z,29.90
2023-03-05T00:36:59.664Z,25.70
2023-03-05T00:39:46.154Z,29.43
2023-03-05T00:42:32.692Z,26.40
2023-03-05T00:45:19.227Z,27.37
2023-03-05T00:48:05.763Z,27.00
2023-03-05T00:50:52.352Z,25.30
2023-03-05T00:53:38.872Z,29.20
2023-03-05T00:56:25.426Z,32.73
2023-03-05T00:59:11.954Z,29.07
2023-03-05T01:01:58.533Z,29.10
2023-03-05T01:04:45.115Z,26.23
2023-03-05T01:07:31.649Z,30.40
2023-03-05T01:10:18.184Z,31.47
2023-03-05T01:13:04.745Z,29.53
2023-03-05T01:15:51.337Z,30.83
2023-03-05T01:18:38.066Z,31.07
2023-03-05T01:21:24.593Z,33.13
2023-03-05T01:24:12.151Z,33.17
2023-03-05T01:26:58.673Z,30.30
2023-03-05T01:29:45.216Z,29.50
2023-03-05T01:32:32.337Z,29.57
2023-03-05T01:35:19.738Z,31.03
2023-03-05T01:38:06.312Z,27.73
2023-03-05T01:40:52.835Z,27.73
2023-03-05T01:43:39.400Z,26.10
2023-03-05T01:46:25.923Z,26.80
2023-03-05T01:49:12.497Z,26.93
2023-03-05T01:51:59.019Z,28.40
2023-03-05T01:54:45.540Z,28.37
2023-03-05T01:57:32.079Z,36.30
2023-03-05T02:00:18.644Z,27.97
2023-03-05T02:03:05.162Z,26.00
2023-03-05T02:05:51.722Z,30.97
2023-03-05T02:08:38.245Z,26.13
2023-03-05T02:11:24.795Z,27.30
2023-03-05T02:14:11.331Z,28.30
2023-03-05T02:16:57.860Z,29.67
2023-03-05T02:19:44.558Z,33.97
2023-03-05T02:22:31.084Z,29.40
2023-03-05T02:25:17.665Z,29.03
2023-03-05T02:28:04.191Z,29.93
2023-03-05T02:30:50.758Z,27.50
2023-03-05T02:33:37.284Z,28.30
2023-03-05T02:36:23.834Z,28.53
2023-03-05T02:39:10.315Z,29.93
2023-03-05T02:41:56.876Z,30.67
2023-03-05T02:44:43.398Z,29.20
2023-03-05T02:47:29.899Z,29.03
2023-03-05T02:50:16.464Z,28.23
2023-03-05T02:53:02.983Z,29.40
2023-03-05T02:55:49.554Z,29.63
2023-03-05T02:58:36.090Z,30.83
2023-03-05T03:01:22.714Z,28.77
2023-03-05T03:04:09.258Z,30.63
2023-03-05T03:06:55.808Z,32.77
2023-03-05T03:09:42.343Z,29.90
2023-03-05T03:12:28.917Z,31.23
2023-03-05T03:15:15.456Z,27.10
2023-03-05T03:18:01.990Z,27.20
2023-03-05T03:20:48.536Z,31.07
2023-03-05T03:23:35.070Z,30.70
2023-03-05T03:26:21.607Z,29.13
2023-03-05T03:29:08.164Z,27.30
2023-03-05T03:31:54.673Z,28.20
2023-03-05T03:34:41.163Z,26.93
2023-03-05T03:37:27.715Z,27.43
2023-03-05T03:40:14.214Z,26.27
2023-03-05T03:43:00.780Z,24.80
2023-03-05T03:45:47.346Z,25.10
2023-03-05T03:48:33.923Z,27.83
2023-03-05T03:51:20.443Z,25.63
2023-03-05T03:54:07.035Z,27.93
2023-03-05T03:56:53.556Z,29.33
2023-03-05T03:59:40.096Z,27.40
2023-03-05T04:02:26.699Z,29.77
2023-03-05T04:05:14.262Z,28.90
2023-03-05T04:08:02.285Z,26.67
2023-03-05T04:10:48.786Z,31.33
2023-03-05T04:13:35.314Z,24.33
2023-03-05T04:16:21.893Z,25.60
2023-03-05T04:19:08.495Z,24.40
2023-03-05T04:21:55.209Z,28.57
2023-03-05T04:24:41.736Z,31.63
2023-03-05T04:27:28.297Z,30.03
2023-03-05T04:30:14.813Z,31.03
2023-03-05T04:33:01.365Z,32.93
2023-03-05T04:35:48.017Z,29.93
2023-03-05T04:38:34.610Z,31.27
2023-03-05T04:41:21.159Z,32.50
2023-03-05T04:44:07.739Z,30.40
2023-03-05T04:46:54.273Z,32.37
2023-03-05T04:49:40.798Z,38.07
2023-03-05T04:52:27.320Z,30.43
2023-03-05T04:55:13.874Z,33.90
2023-03-05T04:58:00.347Z,34.27
2023-03-05T05:00:46.999Z,33.80
2023-03-05T05:03:33.532Z,36.40
2023-03-05T05:06:20.070Z,34.40
2023-03-05T05:09:06.597Z,34.50
2023-03-05T05:11:53.155Z,34.10
2023-03-05T05:14:39.672Z,36.07
2023-03-05T05:17:26.214Z,35.23
2023-03-05T05:20:12.749Z,34.63
2023-03-05T05:22:59.309Z,35.90
2023-03-05T05:25:45.867Z,31.90
2023-03-05T05:28:32.369Z,40.57
2023-03-05T05:31:19.090Z,41.33
2023-03-05T05:34:05.613Z,38.57
2023-03-05T05:36:52.128Z,34.93
2023-03-05T05:39:38.652Z,35.57
2023-03-05T05:42:25.174Z,39.47
2023-03-05T05:45:13.036Z,35.53
2023-03-05T05:47:59.577Z,41.13
2023-03-05T05:50:47.613Z,41.87
2023-03-05T05:53:34.134Z,45.07
2023-03-05T05:56:20.768Z,36.60
2023-03-05T05:59:07.324Z,47.10
2023-03-05T06:01:53.880Z,41.20
2023-03-05T06:04:40.577Z,66.80
2023-03-05T06:07:27.113Z,41.40
2023-03-05T06:10:13.652Z,38.03
2023-03-05T06:13:00.190Z,46.87
2023-03-05T06:15:46.750Z,88.13
2023-03-05T06:18:33.264Z,44.10
2023-03-05T06:21:19.865Z,57.60
2023-03-05T06:24:06.407Z,60.73
2023-03-05T06:26:52.974Z,49.03
2023-03-05T06:29:39.487Z,45.67
2023-03-05T06:32:26.117Z,42.73
2023-03-05T06:35:12.663Z,45.90
2023-03-05T06:37:59.211Z,47.17
2023-03-05T06:40:45.717Z,41.73
2023-03-05T06:43:32.232Z,44.40
2023-03-05T06:46:18.841Z,47.77
2023-03-05T06:49:06.482Z,51.37
2023-03-05T06:51:53.017Z,40.50
2023-03-05T06:54:39.535Z,48.83
2023-03-05T06:57:26.079Z,50.67
2023-03-05T07:00:12.588Z,46.60
2023-03-05T07:02:59.143Z,44.90
2023-03-05T07:05:45.775Z,49.83
2023-03-05T07:08:32.326Z,51.80
2023-03-05T07:11:18.827Z,50.07
2023-03-05T07:14:05.375Z,47.13
2023-03-05T07:16:51.861Z,42.73
2023-03-05T07:19:38.375Z,51.40
2023-03-05T07:22:25.910Z,50.27
2023-03-05T07:25:12.418Z,57.57
2023-03-05T07:27:58.964Z,45.47
2023-03-05T07:30:45.526Z,46.70
2023-03-05T07:33:32.096Z,47.03
2023-03-05T07:36:18.645Z,53.33
2023-03-05T07:39:05.202Z,50.07
2023-03-05T07:41:51.769Z,45.23
2023-03-05T07:44:38.371Z,47.10
2023-03-05T07:47:24.915Z,44.77
2023-03-05T07:50:11.490Z,48.13
2023-03-05T07:52:58.038Z,43.73
2023-03-05T07:55:44.577Z,42.57
2023-03-05T07:58:31.099Z,45.57
2023-03-05T08:01:17.672Z,46.33
2023-03-05T08:04:04.249Z,51.53
2023-03-05T08:06:50.867Z,45.00
2023-03-05T08:09:37.403Z,44.40
2023-03-05T08:12:23.957Z,39.53
2023-03-05T08:15:10.459Z,44.97
2023-03-05T08:17:56.987Z,42.07
2023-03-05T08:20:43.523Z,37.20
2023-03-05T08:23:30.047Z,39.73
2023-03-05T08:26:16.789Z,43.33
2023-03-05T08:29:03.468Z,38.80
2023-03-05T08:31:50.004Z,37.87
2023-03-05T08:34:36.561Z,34.77
2023-03-05T08:37:23.153Z,34.43
2023-03-05T08:40:09.650Z,111.70
2023-03-05T08:42:56.207Z,49.90
2023-03-05T08:45:42.712Z,32.23
2023-03-05T08:48:29.243Z,44.20
2023-03-05T08:51:15.753Z,33.87
2023-03-05T08:54:02.295Z,32.07
2023-03-05T08:56:48.822Z,54.80
2023-03-05T08:59:35.344Z,31.13
2023-03-05T09:02:21.830Z,33.00
2023-03-05T09:05:08.373Z,31.90
2023-03-05T09:07:54.900Z,35.93
2023-03-05T09:10:41.426Z,55.53
2023-03-05T09:13:27.973Z,36.30
2023-03-05T09:16:14.501Z,31.50
2023-03-05T09:19:01.073Z,27.30
2023-03-05T09:21:47.641Z,27.07
2023-03-05T09:24:34.194Z,31.20
2023-03-05T09:27:20.735Z,28.83
2023-03-05T09:30:07.269Z,27.37
2023-03-05T09:32:53.795Z,30.73
2023-03-05T09:35:40.388Z,24.40
2023-03-05T09:38:26.909Z,27.63
2023-03-05T09:41:13.431Z,24.93
2023-03-05T09:43:59.954Z,24.03
2023-03-05T09:46:46.476Z,24.93
2023-03-05T09:49:33.148Z,26.07
2023-03-05T09:52:19.705Z,25.80
2023-03-05T09:55:06.333Z,27.73
2023-03-05T09:57:54.381Z,25.10
2023-03-05T10:00:40.930Z,23.63
2023-03-05T10:03:27.511Z,25.27
2023-03-05T10:06:14.106Z,23.87
2023-03-05T10:09:00.626Z,23.47
2023-03-05T10:11:47.131Z,20.63
2023-03-05T10:14:34.698Z,25.13
2023-03-05T10:17:21.230Z,24.93
2023-03-05T10:20:07.818Z,21.27
2023-03-05T10:22:54.364Z,24.67
2023-03-05T10:25:40.856Z,18.90
2023-03-05T10:28:27.468Z,17.73
2023-03-05T10:31:13.959Z,21.80
2023-03-05T10:34:00.502Z,23.03
2023-03-05T10:36:47.063Z,22.47
2023-03-05T10:39:33.583Z,16.93
2023-03-05T10:42:26.107Z,18.87
2023-03-05T10:45:14.070Z,15.67
2023-03-05T10:48:01.435Z,17.03
2023-03-05T10:50:48.077Z,15.67
2023-03-05T10:53:34.627Z,15.57
2023-03-05T10:56:21.302Z,17.20
2023-03-05T10:59:07.820Z,16.80
2023-03-05T11:01:54.376Z,16.43
2023-03-05T11:04:40.856Z,14.67
2023-03-05T11:07:27.386Z,12.27
2023-03-05T11:10:13.876Z,12.17
2023-03-05T11:13:00.414Z,11.53
2023-03-05T11:15:46.986Z,12.13
2023-03-05T11:18:33.526Z,9.43
2023-03-05T11:21:20.058Z,11.50
2023-03-05T11:24:06.596Z,15.50
2023-03-05T11:26:53.264Z,11.43
2023-03-05T11:29:39.971Z,10.00
2023-03-05T11:32:26.602Z,15.57
2023-03-05T11:35:13.179Z,12.60
2023-03-05T11:37:59.664Z,11.30
2023-03-05T11:40:46.224Z,11.37
2023-03-05T11:43:33.442Z,11.50
2023-03-05T11:46:19.972Z,11.20
2023-03-05T11:49:06.581Z,10.80
2023-03-05T11:51:53.114Z,10.53
2023-03-05T11:54:39.723Z,12.40
2023-03-05T11:57:26.202Z,11.40
2023-03-05T12:00:12.870Z,11.90
2023-03-05T12:02:59.411Z,13.90
2023-03-05T12:05:45.974Z,39.40
2023-03-05T12:08:32.542Z,16.77
2023-03-05T12:11:19.026Z,26.63
2023-03-05T12:14:05.648Z,32.03
2023-03-05T12:16:52.249Z,25.33
2023-03-05T12:19:38.798Z,20.73
2023-03-05T12:22:25.329Z,17.27
2023-03-05T12:25:11.875Z,12.13
2023-03-05T12:27:58.378Z,19.53
2023-03-05T12:30:44.969Z,12.10
2023-03-05T12:33:31.455Z,10.13
2023-03-05T12:36:18.002Z,19.40
2023-03-05T12:39:04.528Z,11.40
2023-03-05T12:41:51.097Z,14.33
2023-03-05T12:44:37.687Z,14.50
2023-03-05T12:47:24.342Z,8.90
2023-03-05T12:50:10.874Z,12.13
2023-03-05T12:52:57.389Z,12.77
2023-03-05T12:55:43.870Z,12.97
2023-03-05T12:58:30.436Z,15.90
2023-03-05T13:01:16.990Z,18.57
2023-03-05T13:04:03.641Z,13.63
2023-03-05T13:06:50.230Z,29.73
2023-03-05T13:09:36.752Z,43.20
2023-03-05T13:12:23.341Z,18.30
2023-03-05T13:15:10.064Z,16.40
2023-03-05T13:17:56.544Z,15.33
2023-03-05T13:20:43.137Z,16.13
2023-03-05T13:23:29.687Z,18.00
2023-03-05T13:26:16.195Z,14.17
2023-03-05T13:29:02.705Z,15.07
2023-03-05T13:31:49.291Z,14.13
2023-03-05T13:34:46.721Z,14.20
2023-03-05T13:37:33.971Z,13.33
2023-03-05T13:40:20.461Z,13.20
2023-03-05T13:43:07.000Z,13.37
2023-03-05T13:45:53.550Z,14.13
2023-03-05T13:48:40.148Z,14.67
2023-03-05T13:51:26.696Z,13.07
2023-03-05T13:54:13.346Z,17.37
2023-03-05T13:56:59.840Z,18.53
2023-03-05T13:59:46.340Z,16.70
2023-03-05T14:02:33.833Z,14.67
2023-03-05T14:05:20.356Z,13.83
2023-03-05T14:08:06.839Z,13.70
2023-03-05T14:10:53.458Z,13.30
2023-03-05T14:13:40.025Z,17.57
2023-03-05T14:16:26.612Z,15.20
2023-03-05T14:19:13.142Z,14.63
2023-03-05T14:21:59.645Z,17.27
2023-03-05T14:24:46.184Z,13.20
2023-03-05T14:27:32.714Z,14.23
2023-03-05T14:30:19.244Z,16.87
2023-03-05T14:33:05.801Z,14.53
2023-03-05T14:35:52.410Z,17.10
2023-03-05T14:38:38.978Z,14.27
2023-03-05T14:41:25.457Z,16.30
2023-03-05T14:44:13.522Z,16.63
2023-03-05T14:47:00.020Z,16.13
2023-03-05T14:49:46.531Z,16.93
2023-03-05T14:52:34.557Z,13.80
2023-03-05T14:55:21.042Z,14.80
2023-03-05T14:58:07.564Z,12.90
2023-03-05T15:00:54.088Z,14.73
2023-03-05T15:03:40.591Z,15.43
2023-03-05T15:06:27.167Z,15.77
2023-03-05T15:09:13.706Z,14.63
2023-03-05T15:12:00.186Z,12.73
2023-03-05T15:14:47.718Z,14.07
2023-03-05T15:17:34.251Z,13.37
2023-03-05T15:20:20.795Z,14.13
2023-03-05T15:23:07.321Z,14.80
2023-03-05T15:25:53.873Z,14.23
2023-03-05T15:28:40.373Z,13.27
2023-03-05T15:31:26.893Z,15.53
2023-03-05T15:34:13.570Z,12.07
2023-03-05T15:37:00.164Z,14.17
2023-03-05T15:39:46.692Z,14.17
2023-03-05T15:42:33.173Z,16.23
2023-03-05T15:45:19.689Z,15.33
2023-03-05T15:48:06.175Z,14.37
2023-03-05T15:50:52.733Z,15.83
2023-03-05T15:53:39.232Z,14.10
2023-03-05T15:56:25.778Z,15.33
2023-03-05T15:59:12.299Z,15.43
2023-03-05T16:01:58.950Z,13.97
2023-03-05T16:04:45.460Z,14.13
2023-03-05T16:07:33.004Z,15.33
2023-03-05T16:10:19.603Z,16.70
2023-03-05T16:13:06.140Z,16.73
2023-03-05T16:15:52.677Z,18.30
2023-03-05T16:18:39.279Z,16.83
2023-03-05T16:21:25.818Z,18.90
2023-03-05T16:24:12.409Z,17.77
2023-03-05T16:26:59.043Z,18.73
2023-03-05T16:29:45.568Z,17.97
2023-03-05T16:32:33.091Z,21.13
2023-03-05T16:35:19.830Z,18.07
2023-03-05T16:38:09.051Z,19.33
2023-03-05T16:41:07.820Z,19.57
2023-03-05T16:43:54.971Z,19.80
2023-03-05T16:46:41.654Z,22.20
2023-03-05T16:49:28.171Z,18.77
2023-03-05T16:52:19.185Z,20.33
2023-03-05T16:55:06.534Z,23.17
2023-03-05T16:57:53.150Z,20.03
2023-03-05T17:00:39.664Z,19.83
2023-03-05T17:03:26.223Z,21.63
2023-03-05T17:06:12.700Z,17.43
2023-03-05T17:08:59.236Z,20.70
2023-03-05T17:11:45.766Z,20.50
2023-03-05T17:14:32.405Z,19.93
2023-03-05T17:17:18.991Z,17.60
2023-03-05T17:20:05.649Z,21.47
2023-03-05T17:22:52.191Z,20.43
2023-03-05T17:25:38.703Z,66.00
2023-03-05T17:28:25.232Z,23.97
2023-03-05T17:31:11.738Z,20.30
2023-03-05T17:33:58.235Z,20.57
2023-03-05T17:36:44.788Z,19.50
2023-03-05T17:39:31.288Z,21.10
2023-03-05T17:42:18.788Z,19.87
2023-03-05T17:45:05.262Z,19.90
2023-03-05T17:47:51.796Z,22.43
2023-03-05T17:50:38.330Z,22.53
2023-03-05T17:53:24.811Z,17.53
2023-03-05T17:56:11.320Z,20.00
2023-03-05T17:58:57.816Z,21.33
2023-03-05T18:01:44.321Z,23.20
2023-03-05T18:04:30.835Z,19.60
2023-03-05T18:07:17.387Z,19.60
2023-03-05T18:10:03.870Z,17.73
2023-03-05T18:12:50.367Z,24.77
2023-03-05T18:15:36.857Z,19.93
2023-03-05T18:18:23.358Z,18.03
2023-03-05T18:21:09.879Z,18.63
2023-03-05T18:23:56.437Z,19.60
2023-03-05T18:26:42.909Z,14.77
2023-03-05T18:29:29.427Z,18.60
2023-03-05T18:32:15.955Z,16.80
2023-03-05T18:35:02.556Z,17.60
2023-03-05T18:37:50.132Z,14.80
2023-03-05T18:40:36.689Z,13.90
2023-03-05T18:43:23.194Z,19.00
2023-03-05T18:46:09.823Z,14.13
2023-03-05T18:48:56.365Z,15.87
2023-03-05T18:51:42.878Z,16.37
2023-03-05T18:54:29.378Z,10.80
2023-03-05T18:57:15.943Z,13.70
2023-03-05T19:00:02.526Z,12.20
2023-03-05T19:02:49.070Z,13.23
2023-03-05T19:05:35.667Z,13.40
2023-03-05T19:08:22.107Z,13.83
2023-03-05T19:11:08.720Z,11.57
2023-03-05T19:13:55.510Z,12.20
2023-03-05T19:16:42.050Z,11.47
2023-03-05T19:19:28.630Z,11.10
2023-03-05T19:22:15.171Z,10.60
2023-03-05T19:25:01.664Z,10.47
2023-03-05T19:27:48.234Z,11.23
2023-03-05T19:30:35.723Z,10.63
2023-03-05T19:33:24.134Z,9.87
2023-03-05T19:36:11.547Z,9.67
2023-03-05T19:38:58.054Z,9.87
2023-03-05T19:41:44.595Z,10.00
2023-03-05T19:44:31.075Z,9.50
2023-03-05T19:47:17.737Z,10.63
2023-03-05T19:50:04.224Z,7.87
2023-03-05T19:52:50.759Z,8.03
2023-03-05T19:55:37.284Z,6.57
2023-03-05T19:58:23.806Z,8.40
2023-03-05T20:01:11.317Z,7.70
2023-03-05T20:03:57.815Z,7.73
2023-03-05T20:06:44.502Z,5.80
2023-03-05T20:09:31.018Z,6.30
2023-03-05T20:12:17.616Z,5.67
2023-03-05T20:15:04.095Z,5.40
2023-03-05T20:17:50.624Z,6.60
2023-03-05T20:20:37.126Z,6.07
2023-03-05T20:23:23.642Z,6.43
2023-03-05T20:26:10.166Z,5.43
2023-03-05T20:28:56.657Z,5.87
2023-03-05T20:31:43.303Z,4.50
2023-03-05T20:34:29.826Z,4.23
2023-03-05T20:37:16.424Z,4.03
2023-03-05T20:40:03.135Z,4.03
2023-03-05T20:42:51.214Z,3.73
2023-03-05T20:45:37.727Z,3.93
2023-03-05T20:48:24.233Z,5.30
2023-03-05T20:51:10.704Z,7.07
2023-03-05T20:53:57.211Z,5.27
2023-03-05T20:56:43.767Z,5.10
2023-03-05T20:59:30.311Z,6.90
2023-03-05T21:02:16.818Z,5.83
2023-03-05T21:05:03.358Z,4.33
2023-03-05T21:07:49.942Z,4.73
2023-03-05T21:10:36.471Z,5.93
2023-03-05T21:13:23.013Z,4.87
2023-03-05T21:16:09.634Z,3.33
2023-03-05T21:18:56.184Z,3.77
2023-03-05T21:21:42.686Z,4.10
2023-03-05T21:24:29.182Z,4.70
2023-03-05T21:27:15.723Z,3.90
2023-03-05T21:30:02.314Z,5.03
2023-03-05T21:32:48.988Z,5.33
2023-03-05T21:35:35.540Z,5.13
2023-03-05T21:38:22.059Z,4.77
2023-03-05T21:41:08.602Z,4.27
2023-03-05T21:43:55.135Z,6.07
2023-03-05T21:46:41.691Z,6.47
2023-03-05T21:49:28.176Z,3.77
2023-03-05T21:52:14.689Z,5.17
2023-03-05T21:55:01.225Z,5.57
2023-03-05T21:57:47.728Z,3.93
2023-03-05T22:00:34.204Z,6.37
2023-03-05T22:03:20.700Z,4.93
2023-03-05T22:06:07.215Z,4.57
2023-03-05T22:08:53.747Z,6.80
2023-03-05T22:11:40.223Z,3.73
2023-03-05T22:14:26.727Z,3.77
2023-03-05T22:17:13.255Z,4.37
2023-03-05T22:19:59.751Z,5.30
2023-03-05T22:22:46.236Z,4.73
2023-03-05T22:25:32.735Z,5.57
2023-03-05T22:28:19.251Z,5.33
2023-03-05T22:31:05.763Z,7.37
2023-03-05T22:33:52.302Z,5.43
2023-03-05T22:36:38.823Z,7.13
2023-03-05T22:39:25.364Z,6.00
2023-03-05T22:42:11.987Z,5.20
2023-03-05T22:44:58.487Z,5.77
2023-03-05T22:47:45.022Z,5.07
2023-03-05T22:50:31.510Z,5.30
2023-03-05T22:53:18.008Z,7.73
2023-03-05T22:56:04.523Z,5.17
2023-03-05T22:58:51.084Z,6.20
2023-03-05T23:01:37.563Z,4.47
2023-03-05T23:04:24.147Z,6.07
2023-03-05T23:07:10.664Z,6.57
2023-03-05T23:09:57.228Z,4.90
2023-03-05T23:12:43.765Z,5.77
2023-03-05T23:15:34.832Z,10.03
2023-03-05T23:18:21.367Z,7.03
2023-03-05T23:21:07.868Z,6.93
2023-03-05T23:23:54.376Z,5.80
2023-03-05T23:26:40.884Z,6.70
2023-03-05T23:29:27.392Z,7.83
2023-03-05T23:32:13.913Z,8.27
2023-03-05T23:35:00.442Z,9.00
2023-03-05T23:37:46.925Z,6.63
2023-03-05T23:40:33.414Z,7.73
2023-03-05T23:43:19.939Z,5.50
2023-03-05T23:46:06.454Z,8.40
2023-03-05T23:48:52.942Z,7.43
2023-03-05T23:51:39.491Z,6.77
2023-03-05T23:54:25.981Z,4.93
2023-03-05T23:57:12.499Z,6.77
2023-03-05T23:59:58.983Z,5.73
